createdAt,value
2018-08-28T00:00:17.026Z,0
2018-08-28T00:01:27.135Z,0
2018-08-28T00:02:36.709Z,0
2018-08-28T00:03:46.277Z,0
2018-08-28T00:04:55.846Z,0
2018-08-28T00:06:05.691Z,0
2018-08-28T00:07:15.803Z,0
2018-08-28T00:08:25.374Z,0
2018-08-28T00:09:34.947Z,0
2018-08-28T00:10:44.791Z,0
2018-08-28T00:11:54.951Z,0
2018-08-28T00:13:03.984Z,0
2018-08-28T00:14:13.562Z,0
2018-08-28T00:15:23.411Z,0
2018-08-28T00:16:33.526Z,0
2018-08-28T00:17:42.829Z,0
2018-08-28T00:18:52.672Z,0
2018-08-28T00:20:02.255Z,0
2018-08-28T00:21:11.836Z,0
2018-08-28T00:22:21.947Z,0
2018-08-28T00:23:31.807Z,0
2018-08-28T00:24:41.660Z,0
2018-08-28T00:25:51.500Z,0
2018-08-28T00:27:01.625Z,0
2018-08-28T00:28:10.926Z,0
2018-08-28T00:29:20.498Z,0
2018-08-28T00:30:30.344Z,0
2018-08-28T00:31:39.651Z,0
2018-08-28T00:32:49.773Z,0
2018-08-28T00:33:59.620Z,0
2018-08-28T00:35:08.653Z,0
2018-08-28T00:36:18.498Z,0
2018-08-28T00:37:28.614Z,0
2018-08-28T00:38:38.454Z,0
2018-08-28T00:39:48.564Z,0
2018-08-28T00:40:58.408Z,0
2018-08-28T00:42:08.269Z,0
2018-08-28T00:43:17.573Z,0
2018-08-28T00:44:27.144Z,0
2018-08-28T00:45:36.983Z,0
2018-08-28T00:46:46.829Z,0
2018-08-28T00:47:56.671Z,0
2018-08-28T00:49:05.971Z,0
2018-08-28T00:50:16.081Z,0
2018-08-28T00:51:25.922Z,0
2018-08-28T00:52:36.026Z,0
2018-08-28T00:53:45.596Z,0
2018-08-28T00:54:54.898Z,0
2018-08-28T00:56:04.746Z,0
2018-08-28T00:57:14.591Z,0
2018-08-28T00:58:24.703Z,0
2018-08-28T00:59:34.552Z,0
2018-08-28T01:00:43.864Z,0
2018-08-28T01:01:53.711Z,0
2018-08-28T01:03:03.560Z,0
2018-08-28T01:04:13.410Z,0
2018-08-28T01:05:22.979Z,0
2018-08-28T01:06:33.095Z,0
2018-08-28T01:07:42.664Z,0
2018-08-28T01:08:52.239Z,0
2018-08-28T01:10:01.811Z,0
2018-08-28T01:11:11.392Z,0
2018-08-28T01:12:21.233Z,0
2018-08-28T01:13:31.348Z,0
2018-08-28T01:14:41.329Z,0
2018-08-28T01:15:50.960Z,0
2018-08-28T01:17:00.800Z,0
2018-08-28T01:18:10.913Z,0
2018-08-28T01:19:20.752Z,0
2018-08-28T01:20:30.599Z,0
2018-08-28T01:21:40.441Z,0
2018-08-28T01:22:50.555Z,0
2018-08-28T01:24:00.401Z,0
2018-08-28T01:25:10.244Z,0
2018-08-28T01:26:20.100Z,0
2018-08-28T01:27:29.673Z,0
2018-08-28T01:28:39.247Z,0
2018-08-28T01:29:48.553Z,0
2018-08-28T01:30:57.584Z,0
2018-08-28T01:32:07.429Z,0
2018-08-28T01:33:17.274Z,0
2018-08-28T01:34:26.844Z,0
2018-08-28T01:35:36.413Z,0
2018-08-28T01:36:45.718Z,0
2018-08-28T01:37:55.842Z,0
2018-08-28T01:39:05.947Z,0
2018-08-28T01:40:16.057Z,0
2018-08-28T01:41:26.170Z,0
2018-08-28T01:42:35.743Z,0
2018-08-28T01:43:45.582Z,0
2018-08-28T01:44:55.711Z,0
2018-08-28T01:46:05.552Z,0
2018-08-28T01:47:15.124Z,0
2018-08-28T01:48:24.974Z,0
2018-08-28T01:49:34.825Z,0
2018-08-28T01:50:44.130Z,0
2018-08-28T01:51:53.969Z,0
2018-08-28T01:53:04.134Z,0
2018-08-28T01:54:13.711Z,0
2018-08-28T01:55:23.024Z,0
2018-08-28T01:56:32.593Z,0
2018-08-28T01:57:42.168Z,0
2018-08-28T01:58:52.012Z,0
2018-08-28T02:00:02.122Z,0
2018-08-28T02:01:11.694Z,0
2018-08-28T02:02:21.532Z,0
2018-08-28T02:03:31.372Z,0
2018-08-28T02:04:41.214Z,0
2018-08-28T02:05:50.793Z,0
2018-08-28T02:07:00.905Z,0
2018-08-28T02:08:10.799Z,0
2018-08-28T02:09:20.645Z,0
2018-08-28T02:10:29.946Z,0
2018-08-28T02:11:40.075Z,0
2018-08-28T02:12:49.381Z,0
2018-08-28T02:13:58.686Z,0
2018-08-28T02:15:08.532Z,0
2018-08-28T02:16:18.646Z,0
2018-08-28T02:17:28.223Z,0
2018-08-28T02:18:38.334Z,0
2018-08-28T02:19:48.183Z,0
2018-08-28T02:20:57.485Z,0
2018-08-28T02:22:07.056Z,0
2018-08-28T02:23:16.917Z,0
2018-08-28T02:24:26.485Z,0
2018-08-28T02:25:36.057Z,0
2018-08-28T02:26:45.894Z,0
2018-08-28T02:27:55.479Z,0
2018-08-28T02:29:05.594Z,0
2018-08-28T02:30:15.713Z,0
2018-08-28T02:31:28.550Z,0
2018-08-28T02:32:38.666Z,0
2018-08-28T02:33:48.886Z,0
2018-08-28T02:34:58.466Z,0
2018-08-28T02:36:07.771Z,0
2018-08-28T02:37:17.628Z,0
2018-08-28T02:38:27.744Z,0
2018-08-28T02:39:37.050Z,0
2018-08-28T02:40:46.907Z,0
2018-08-28T02:41:56.478Z,0
2018-08-28T02:43:06.046Z,0
2018-08-28T02:44:15.885Z,0
2018-08-28T02:45:25.735Z,0
2018-08-28T02:46:35.305Z,0
2018-08-28T02:47:45.410Z,0
2018-08-28T02:48:55.259Z,0
2018-08-28T02:50:04.295Z,0
2018-08-28T02:51:13.866Z,0
2018-08-28T02:52:23.439Z,0
2018-08-28T02:53:33.553Z,0
2018-08-28T02:54:43.134Z,0
2018-08-28T02:55:52.973Z,0
2018-08-28T02:57:02.819Z,0
2018-08-28T02:58:12.387Z,0
2018-08-28T02:59:21.957Z,0
2018-08-28T03:00:31.807Z,0
2018-08-28T03:01:41.658Z,0
2018-08-28T03:02:51.918Z,0
2018-08-28T03:04:02.147Z,0
2018-08-28T03:05:12.002Z,0
2018-08-28T03:06:21.850Z,0
2018-08-28T03:07:31.706Z,0
2018-08-28T03:08:41.570Z,0
2018-08-28T03:09:51.689Z,0
2018-08-28T03:11:01.815Z,0
2018-08-28T03:12:11.392Z,0
2018-08-28T03:13:21.234Z,0
2018-08-28T03:14:31.344Z,0
2018-08-28T03:15:41.895Z,0
2018-08-28T03:16:51.500Z,0
2018-08-28T03:18:01.348Z,0
2018-08-28T03:19:11.191Z,0
2018-08-28T03:20:21.303Z,0
2018-08-28T03:21:31.147Z,0
2018-08-28T03:22:40.720Z,0
2018-08-28T03:23:50.294Z,0
2018-08-28T03:24:59.859Z,0
2018-08-28T03:26:09.175Z,0
2018-08-28T03:27:19.019Z,0
2018-08-28T03:28:28.600Z,0
2018-08-28T03:29:38.712Z,0
2018-08-28T03:30:48.561Z,0
2018-08-28T03:31:58.420Z,0
2018-08-28T03:33:08.277Z,0
2018-08-28T03:34:17.854Z,0
2018-08-28T03:35:27.699Z,0
2018-08-28T03:36:37.816Z,0
2018-08-28T03:37:47.665Z,0
2018-08-28T03:38:57.513Z,0
2018-08-28T03:40:07.628Z,0
2018-08-28T03:41:17.827Z,0
2018-08-28T03:42:28.006Z,0
2018-08-28T03:43:37.618Z,0
2018-08-28T03:44:47.183Z,0
2018-08-28T03:45:57.540Z,0
2018-08-28T03:47:07.383Z,0
2018-08-28T03:48:17.494Z,0
2018-08-28T03:49:27.337Z,0
2018-08-28T03:50:36.912Z,0
2018-08-28T03:51:46.750Z,0
2018-08-28T03:52:56.317Z,0
2018-08-28T03:54:05.885Z,0
2018-08-28T03:55:15.297Z,0
2018-08-28T03:56:25.147Z,4
2018-08-28T03:57:34.445Z,4
2018-08-28T03:58:43.744Z,0
2018-08-28T03:59:53.598Z,4
2018-08-28T04:01:03.434Z,4
2018-08-28T04:02:13.551Z,4
2018-08-28T04:03:23.676Z,8
2018-08-28T04:04:33.788Z,8
2018-08-28T04:05:43.361Z,12
2018-08-28T04:06:53.203Z,12
2018-08-28T04:08:03.319Z,12
2018-08-28T04:09:12.890Z,16
2018-08-28T04:10:22.467Z,20
2018-08-28T04:11:32.308Z,20
2018-08-28T04:12:42.158Z,28
2018-08-28T04:13:52.000Z,32
2018-08-28T04:15:01.036Z,36
2018-08-28T04:16:10.890Z,40
2018-08-28T04:17:20.935Z,48
2018-08-28T04:18:30.516Z,56
2018-08-28T04:19:40.364Z,64
2018-08-28T04:20:50.477Z,76
2018-08-28T04:22:00.589Z,88
2018-08-28T04:23:10.158Z,96
2018-08-28T04:24:19.737Z,112
2018-08-28T04:25:29.848Z,124
2018-08-28T04:26:39.148Z,140
2018-08-28T04:27:49.257Z,156
2018-08-28T04:28:58.828Z,168
2018-08-28T04:30:08.687Z,184
2018-08-28T04:31:17.995Z,200
2018-08-28T04:32:28.109Z,216
2018-08-28T04:33:38.237Z,224
2018-08-28T04:34:48.083Z,240
2018-08-28T04:35:57.112Z,256
2018-08-28T04:37:06.682Z,268
2018-08-28T04:38:16.527Z,284
2018-08-28T04:39:26.096Z,300
2018-08-28T04:40:36.269Z,324
2018-08-28T04:41:46.480Z,348
2018-08-28T04:42:56.163Z,376
2018-08-28T04:44:06.276Z,396
2018-08-28T04:45:16.403Z,420
2018-08-28T04:46:26.243Z,436
2018-08-28T04:47:35.814Z,460
2018-08-28T04:48:46.048Z,488
2018-08-28T04:49:55.682Z,516
2018-08-28T04:51:05.794Z,544
2018-08-28T04:52:15.371Z,572
2018-08-28T04:53:25.476Z,604
2018-08-28T04:54:35.590Z,628
2018-08-28T04:55:45.443Z,656
2018-08-28T04:56:55.026Z,692
2018-08-28T04:58:04.597Z,716
2018-08-28T04:59:14.172Z,740
2018-08-28T05:00:24.016Z,772
2018-08-28T05:01:34.134Z,808
2018-08-28T05:02:43.705Z,844
2018-08-28T05:03:53.003Z,880
2018-08-28T05:05:02.849Z,912
2018-08-28T05:06:12.429Z,936
2018-08-28T05:07:22.271Z,968
2018-08-28T05:08:31.574Z,1000
2018-08-28T05:09:41.421Z,1036
2018-08-28T05:10:50.721Z,1056
2018-08-28T05:12:00.636Z,1100
2018-08-28T05:13:10.754Z,1128
2018-08-28T05:14:20.599Z,1164
2018-08-28T05:15:30.704Z,1196
2018-08-28T05:16:40.824Z,1228
2018-08-28T05:17:50.933Z,1268
2018-08-28T05:19:01.048Z,1300
2018-08-28T05:20:11.168Z,1332
2018-08-28T05:21:21.280Z,1364
2018-08-28T05:22:30.587Z,1404
2018-08-28T05:23:40.428Z,1448
2018-08-28T05:24:50.267Z,1500
2018-08-28T05:25:59.836Z,1564
2018-08-28T05:27:08.878Z,1588
2018-08-28T05:28:18.715Z,1616
2018-08-28T05:29:28.615Z,1664
2018-08-28T05:30:38.612Z,1712
2018-08-28T05:31:48.537Z,1784
2018-08-28T05:32:58.377Z,1820
2018-08-28T05:34:07.952Z,1844
2018-08-28T05:35:17.794Z,1892
2018-08-28T05:36:27.640Z,1960
2018-08-28T05:37:37.753Z,2000
2018-08-28T05:38:47.333Z,2056
2018-08-28T05:39:56.912Z,2092
2018-08-28T05:41:06.220Z,2140
2018-08-28T05:42:15.793Z,2168
2018-08-28T05:43:25.636Z,2192
2018-08-28T05:44:34.961Z,2220
2018-08-28T05:45:44.816Z,2312
2018-08-28T05:46:54.120Z,2336
2018-08-28T05:48:03.968Z,2376
2018-08-28T05:49:13.320Z,2432
2018-08-28T05:50:22.083Z,2504
2018-08-28T05:51:31.931Z,2568
2018-08-28T05:52:41.240Z,2616
2018-08-28T05:53:51.082Z,2600
2018-08-28T05:55:01.454Z,2632
2018-08-28T05:56:11.633Z,2696
2018-08-28T05:57:21.628Z,2768
2018-08-28T05:58:31.470Z,2848
2018-08-28T05:59:41.315Z,2832
2018-08-28T06:00:50.889Z,2828
2018-08-28T06:02:00.466Z,2844
2018-08-28T06:03:10.387Z,2832
2018-08-28T06:04:20.736Z,2816
2018-08-28T06:05:30.851Z,2792
2018-08-28T06:06:40.471Z,2756
2018-08-28T06:07:50.318Z,2784
2018-08-28T06:09:00.737Z,2888
2018-08-28T06:10:10.344Z,2976
2018-08-28T06:11:19.919Z,2992
2018-08-28T06:12:30.030Z,3004
2018-08-28T06:13:39.598Z,3032
2018-08-28T06:14:49.540Z,3056
2018-08-28T06:15:59.694Z,3020
2018-08-28T06:17:09.531Z,3008
2018-08-28T06:18:19.116Z,2952
2018-08-28T06:19:28.433Z,2920
2018-08-28T06:20:38.000Z,3004
2018-08-28T06:21:48.122Z,3060
2018-08-28T06:22:58.523Z,3004
2018-08-28T06:24:08.059Z,2936
2018-08-28T06:25:18.194Z,2928
2018-08-28T06:26:28.534Z,2912
2018-08-28T06:27:38.644Z,2940
2018-08-28T06:28:48.215Z,3004
2018-08-28T06:29:57.841Z,3100
2018-08-28T06:31:07.686Z,3184
2018-08-28T06:32:17.813Z,3184
2018-08-28T06:33:27.385Z,3132
2018-08-28T06:34:37.238Z,3136
2018-08-28T06:35:46.542Z,3124
2018-08-28T06:36:56.672Z,3136
2018-08-28T06:38:06.517Z,3104
2018-08-28T06:39:16.359Z,3108
2018-08-28T06:40:26.204Z,3104
2018-08-28T06:41:36.050Z,3048
2018-08-28T06:42:45.898Z,3052
2018-08-28T06:43:56.119Z,3096
2018-08-28T06:45:06.177Z,3060
2018-08-28T06:46:16.033Z,3012
2018-08-28T06:47:25.609Z,3008
2018-08-28T06:48:34.920Z,2996
2018-08-28T06:49:45.121Z,3024
2018-08-28T06:50:54.693Z,3016
2018-08-28T06:52:04.282Z,3028
2018-08-28T06:53:14.452Z,3060
2018-08-28T06:54:24.575Z,3072
2018-08-28T06:55:33.603Z,3044
2018-08-28T06:56:43.829Z,3104
2018-08-28T06:57:53.413Z,3208
2018-08-28T06:59:02.979Z,3328
2018-08-28T07:00:12.825Z,3380
2018-08-28T07:01:22.125Z,3304
2018-08-28T07:02:31.992Z,3204
2018-08-28T07:03:41.858Z,3164
2018-08-28T07:04:51.714Z,3188
2018-08-28T07:06:01.555Z,3224
2018-08-28T07:07:11.135Z,3276
2018-08-28T07:08:20.695Z,3332
2018-08-28T07:09:30.530Z,3400
2018-08-28T07:10:40.125Z,3508
2018-08-28T07:11:49.974Z,3628
2018-08-28T07:12:59.549Z,3736
2018-08-28T07:14:09.122Z,3884
2018-08-28T07:15:18.424Z,4032
2018-08-28T07:16:27.998Z,4196
2018-08-28T07:17:37.868Z,4376
2018-08-28T07:18:47.349Z,4448
2018-08-28T07:19:57.797Z,4344
2018-08-28T07:21:07.098Z,4348
2018-08-28T07:22:16.671Z,4292
2018-08-28T07:23:26.515Z,4356
2018-08-28T07:24:36.353Z,4576
2018-08-28T07:25:47.182Z,4720
2018-08-28T07:26:57.472Z,4900
2018-08-28T07:28:06.772Z,5108
2018-08-28T07:29:16.627Z,5088
2018-08-28T07:30:26.481Z,5120
2018-08-28T07:31:36.763Z,4984
2018-08-28T07:32:46.384Z,4920
2018-08-28T07:33:56.273Z,4788
2018-08-28T07:35:05.306Z,4824
2018-08-28T07:36:15.157Z,4656
2018-08-28T07:37:25.483Z,4668
2018-08-28T07:38:35.096Z,4836
2018-08-28T07:39:44.947Z,5052
2018-08-28T07:40:55.052Z,5272
2018-08-28T07:42:04.664Z,5424
2018-08-28T07:43:14.515Z,5288
2018-08-28T07:44:24.635Z,5148
2018-08-28T07:45:34.770Z,5012
2018-08-28T07:46:44.884Z,4884
2018-08-28T07:47:54.994Z,5056
2018-08-28T07:49:04.832Z,4952
2018-08-28T07:50:14.676Z,4984
2018-08-28T07:51:24.248Z,5008
2018-08-28T07:52:34.369Z,5144
2018-08-28T07:53:44.002Z,5372
2018-08-28T07:54:53.857Z,5452
2018-08-28T07:56:03.433Z,5460
2018-08-28T07:57:13.276Z,5352
2018-08-28T07:58:23.409Z,5176
2018-08-28T07:59:32.982Z,4964
2018-08-28T08:00:42.290Z,4844
2018-08-28T08:01:52.175Z,4832
2018-08-28T08:03:01.747Z,4836
2018-08-28T08:04:11.867Z,4720
2018-08-28T08:05:21.709Z,4544
2018-08-28T08:06:31.551Z,4560
2018-08-28T08:07:41.452Z,4684
2018-08-28T08:08:51.577Z,4904
2018-08-28T08:10:01.172Z,4900
2018-08-28T08:11:11.030Z,4912
2018-08-28T08:12:20.599Z,4860
2018-08-28T08:13:30.440Z,4912
2018-08-28T08:14:40.282Z,5020
2018-08-28T08:15:49.996Z,5156
2018-08-28T08:16:59.572Z,5316
2018-08-28T08:18:09.193Z,5312
2018-08-28T08:19:19.320Z,5312
2018-08-28T08:20:29.165Z,5256
2018-08-28T08:21:38.200Z,5260
2018-08-28T08:22:47.789Z,5240
2018-08-28T08:23:57.363Z,5312
2018-08-28T08:25:06.668Z,5236
2018-08-28T08:26:16.524Z,5036
2018-08-28T08:27:26.641Z,4892
2018-08-28T08:28:36.486Z,4760
2018-08-28T08:29:45.797Z,4728
2018-08-28T08:30:55.664Z,4712
2018-08-28T08:32:05.832Z,4704
2018-08-28T08:33:15.682Z,4680
2018-08-28T08:34:25.546Z,4728
2018-08-28T08:35:34.848Z,4768
2018-08-28T08:36:44.429Z,4852
2018-08-28T08:37:54.010Z,5020
2018-08-28T08:39:03.323Z,4936
2018-08-28T08:40:12.901Z,5104
2018-08-28T08:41:22.746Z,5220
2018-08-28T08:42:32.589Z,5540
2018-08-28T08:43:41.898Z,4672
2018-08-28T08:44:51.759Z,4532
2018-08-28T08:46:01.332Z,4596
2018-08-28T08:47:11.177Z,4780
2018-08-28T08:48:21.019Z,4936
2018-08-28T08:49:31.167Z,4740
2018-08-28T08:50:41.020Z,4524
2018-08-28T08:51:50.859Z,4544
2018-08-28T08:53:00.435Z,4616
2018-08-28T08:54:10.279Z,4584
2018-08-28T08:55:19.909Z,4524
2018-08-28T08:56:29.489Z,4656
2018-08-28T08:57:39.197Z,4732
2018-08-28T08:58:49.044Z,4808
2018-08-28T08:59:59.160Z,4816
2018-08-28T09:01:09.004Z,4784
2018-08-28T09:02:18.854Z,4852
2018-08-28T09:03:28.428Z,4920
2018-08-28T09:04:38.551Z,4876
2018-08-28T09:05:48.126Z,5008
2018-08-28T09:06:58.035Z,5188
2018-08-28T09:08:07.622Z,5292
2018-08-28T09:09:16.923Z,5520
2018-08-28T09:10:26.765Z,5736
2018-08-28T09:11:36.608Z,6224
2018-08-28T09:12:46.463Z,5624
2018-08-28T09:13:56.585Z,5232
2018-08-28T09:15:05.886Z,5544
2018-08-28T09:16:14.918Z,6036
2018-08-28T09:17:24.788Z,6820
2018-08-28T09:18:34.639Z,6388
2018-08-28T09:19:44.213Z,6756
2018-08-28T09:20:54.056Z,6768
2018-08-28T09:22:03.639Z,7044
2018-08-28T09:23:13.484Z,8480
2018-08-28T09:24:23.601Z,9436
2018-08-28T09:25:32.898Z,10668
2018-08-28T09:26:42.475Z,10976
2018-08-28T09:27:52.052Z,10360
2018-08-28T09:29:01.634Z,9884
2018-08-28T09:30:11.204Z,10516
2018-08-28T09:31:20.910Z,10456
2018-08-28T09:32:31.127Z,8944
2018-08-28T09:33:41.244Z,7912
2018-08-28T09:34:51.095Z,8004
2018-08-28T09:36:01.214Z,7972
2018-08-28T09:37:10.516Z,8908
2018-08-28T09:38:20.543Z,8628
2018-08-28T09:39:30.196Z,8292
2018-08-28T09:40:40.042Z,8124
2018-08-28T09:41:49.676Z,8468
2018-08-28T09:42:59.589Z,9280
2018-08-28T09:44:09.443Z,10296
2018-08-28T09:45:19.017Z,10292
2018-08-28T09:46:28.876Z,9668
2018-08-28T09:47:38.453Z,9676
2018-08-28T09:48:47.755Z,9552
2018-08-28T09:49:58.173Z,9740
2018-08-28T09:51:08.036Z,10416
2018-08-28T09:52:18.161Z,10760
2018-08-28T09:53:27.737Z,11008
2018-08-28T09:54:37.310Z,12340
2018-08-28T09:55:46.613Z,13196
2018-08-28T09:56:55.925Z,12996
2018-08-28T09:58:05.766Z,12312
2018-08-28T09:59:15.347Z,11108
2018-08-28T10:00:24.926Z,10200
2018-08-28T10:01:34.774Z,9816
2018-08-28T10:02:44.892Z,10296
2018-08-28T10:03:54.477Z,10556
2018-08-28T10:05:03.519Z,11756
2018-08-28T10:06:13.102Z,12084
2018-08-28T10:07:23.229Z,11740
2018-08-28T10:08:33.082Z,10812
2018-08-28T10:09:43.202Z,9712
2018-08-28T10:10:52.901Z,8068
2018-08-28T10:12:02.487Z,8200
2018-08-28T10:13:12.343Z,9108
2018-08-28T10:14:22.240Z,10120
2018-08-28T10:15:32.083Z,9580
2018-08-28T10:16:41.927Z,8368
2018-08-28T10:17:51.784Z,7784
2018-08-28T10:19:01.626Z,7700
2018-08-28T10:20:11.211Z,7616
2018-08-28T10:21:20.840Z,7996
2018-08-28T10:22:30.695Z,8460
2018-08-28T10:23:40.584Z,8788
2018-08-28T10:24:50.440Z,8596
2018-08-28T10:26:00.325Z,8160
2018-08-28T10:27:09.903Z,7656
2018-08-28T10:28:19.760Z,7400
2018-08-28T10:29:29.116Z,7668
2018-08-28T10:30:38.530Z,8164
2018-08-28T10:31:48.268Z,8880
2018-08-28T10:32:57.859Z,9840
2018-08-28T10:34:07.441Z,10872
2018-08-28T10:35:16.745Z,11544
2018-08-28T10:36:26.638Z,12276
2018-08-28T10:37:35.398Z,12880
2018-08-28T10:38:45.508Z,12824
2018-08-28T10:39:55.083Z,12248
2018-08-28T10:41:04.659Z,11548
2018-08-28T10:42:14.240Z,10536
2018-08-28T10:43:24.094Z,9724
2018-08-28T10:44:34.207Z,10124
2018-08-28T10:45:43.795Z,10600
2018-08-28T10:46:53.797Z,9692
2018-08-28T10:48:03.426Z,7832
2018-08-28T10:49:12.465Z,6512
2018-08-28T10:50:22.040Z,5688
2018-08-28T10:51:31.685Z,4980
2018-08-28T10:52:40.998Z,4512
2018-08-28T10:53:50.843Z,4152
2018-08-28T10:55:00.724Z,3848
2018-08-28T10:56:10.577Z,3744
2018-08-28T10:57:20.173Z,3800
2018-08-28T10:58:29.775Z,4112
2018-08-28T10:59:39.085Z,4464
2018-08-28T11:00:48.728Z,4856
2018-08-28T11:01:58.306Z,5152
2018-08-28T11:03:08.152Z,5408
2018-08-28T11:04:17.728Z,5804
2018-08-28T11:05:27.342Z,6280
2018-08-28T11:06:36.665Z,6628
2018-08-28T11:07:46.789Z,6844
2018-08-28T11:08:57.251Z,6996
2018-08-28T11:10:07.097Z,7172
2018-08-28T11:11:16.951Z,7472
2018-08-28T11:12:26.794Z,7728
2018-08-28T11:13:36.102Z,8024
2018-08-28T11:14:45.675Z,8432
2018-08-28T11:15:55.285Z,8724
2018-08-28T11:17:04.903Z,9048
2018-08-28T11:18:14.753Z,9444
2018-08-28T11:19:24.336Z,9628
2018-08-28T11:20:34.179Z,9644
2018-08-28T11:21:44.082Z,9280
2018-08-28T11:22:54.073Z,9144
2018-08-28T11:24:03.981Z,8596
2018-08-28T11:25:13.832Z,7904
2018-08-28T11:26:23.971Z,7304
2018-08-28T11:27:33.813Z,6976
2018-08-28T11:28:43.650Z,6828
2018-08-28T11:29:53.232Z,6596
2018-08-28T11:31:03.087Z,6260
2018-08-28T11:32:12.665Z,6096
2018-08-28T11:33:22.511Z,6240
2018-08-28T11:34:32.365Z,6528
2018-08-28T11:35:42.753Z,6836
2018-08-28T11:36:52.391Z,7236
2018-08-28T11:38:01.964Z,7704
2018-08-28T11:39:11.587Z,8208
2018-08-28T11:40:20.628Z,8536
2018-08-28T11:41:30.251Z,8748
2018-08-28T11:42:39.844Z,9040
2018-08-28T11:43:49.956Z,9036
2018-08-28T11:45:00.072Z,8820
2018-08-28T11:46:09.648Z,8464
2018-08-28T11:47:19.877Z,8164
2018-08-28T11:48:29.648Z,7944
2018-08-28T11:49:39.778Z,7680
2018-08-28T11:50:49.353Z,7336
2018-08-28T11:51:58.930Z,7084
2018-08-28T11:53:08.868Z,6880
2018-08-28T11:54:18.594Z,6792
2018-08-28T11:55:27.899Z,6712
2018-08-28T11:56:36.935Z,6616
2018-08-28T11:57:46.801Z,6576
2018-08-28T11:58:56.917Z,6552
2018-08-28T12:00:06.764Z,6632
2018-08-28T12:01:16.613Z,6708
2018-08-28T12:02:26.459Z,6880
2018-08-28T12:03:36.574Z,7160
2018-08-28T12:04:46.455Z,7480
2018-08-28T12:05:56.073Z,7764
2018-08-28T12:07:06.425Z,8076
2018-08-28T12:08:16.019Z,8312
2018-08-28T12:09:25.601Z,8544
2018-08-28T12:10:34.920Z,8620
2018-08-28T12:11:44.768Z,8664
2018-08-28T12:12:54.352Z,8880
2018-08-28T12:14:03.391Z,9128
2018-08-28T12:15:13.241Z,9248
2018-08-28T12:16:23.094Z,9456
2018-08-28T12:17:32.722Z,9912
2018-08-28T12:18:42.836Z,10448
2018-08-28T12:19:52.417Z,10884
2018-08-28T12:21:01.924Z,11152
2018-08-28T12:22:11.199Z,11364
2018-08-28T12:23:21.293Z,11620
2018-08-28T12:24:30.329Z,11880
2018-08-28T12:25:39.919Z,12172
2018-08-28T12:26:50.199Z,12584
2018-08-28T12:27:59.590Z,13068
2018-08-28T12:29:09.440Z,13388
2018-08-28T12:30:19.018Z,13848
2018-08-28T12:31:29.141Z,14332
2018-08-28T12:32:38.718Z,14272
2018-08-28T12:33:48.842Z,14212
2018-08-28T12:34:58.691Z,14544
2018-08-28T12:36:08.268Z,14828
2018-08-28T12:37:18.479Z,15144
2018-08-28T12:38:27.467Z,15904
2018-08-28T12:39:37.318Z,16704
2018-08-28T12:40:46.900Z,17440
2018-08-28T12:41:56.749Z,18400
2018-08-28T12:43:06.337Z,19616
2018-08-28T12:44:16.742Z,20896
2018-08-28T12:45:26.599Z,22048
2018-08-28T12:46:36.178Z,22688
2018-08-28T12:47:46.069Z,24224
2018-08-28T12:48:55.932Z,25568
2018-08-28T12:50:05.803Z,28000
2018-08-28T12:51:15.777Z,25056
2018-08-28T12:52:25.663Z,22912
2018-08-28T12:53:35.515Z,21952
2018-08-28T12:54:45.399Z,20064
2018-08-28T12:55:54.988Z,20544
2018-08-28T12:57:05.127Z,21152
2018-08-28T12:58:15.000Z,26688
2018-08-28T12:59:24.581Z,16124
2018-08-28T13:00:34.410Z,14668
2018-08-28T13:01:44.680Z,12816
2018-08-28T13:02:54.566Z,11320
2018-08-28T13:04:04.172Z,10356
2018-08-28T13:05:13.479Z,9852
2018-08-28T13:06:23.059Z,9600
2018-08-28T13:07:33.125Z,9352
2018-08-28T13:08:43.822Z,9128
2018-08-28T13:09:53.685Z,8772
2018-08-28T13:11:03.548Z,8644
2018-08-28T13:12:13.673Z,8728
2018-08-28T13:13:23.787Z,8984
2018-08-28T13:14:33.893Z,9324
2018-08-28T13:15:44.128Z,9940
2018-08-28T13:16:53.710Z,10780
2018-08-28T13:18:03.292Z,11588
2018-08-28T13:19:12.922Z,12112
2018-08-28T13:20:23.121Z,12244
2018-08-28T13:21:32.975Z,11776
2018-08-28T13:22:42.827Z,11116
2018-08-28T13:23:52.677Z,10664
2018-08-28T13:25:02.799Z,10260
2018-08-28T13:26:12.185Z,10092
2018-08-28T13:27:21.498Z,9884
2018-08-28T13:28:31.076Z,9676
2018-08-28T13:29:40.651Z,9696
2018-08-28T13:30:50.504Z,9956
2018-08-28T13:32:00.357Z,10372
2018-08-28T13:33:10.210Z,10808
2018-08-28T13:34:19.792Z,11384
2018-08-28T13:35:29.388Z,11992
2018-08-28T13:36:39.260Z,12896
2018-08-28T13:37:48.842Z,14248
2018-08-28T13:38:58.423Z,15832
2018-08-28T13:40:08.641Z,17760
2018-08-28T13:41:18.315Z,19168
2018-08-28T13:42:28.176Z,20288
2018-08-28T13:43:38.027Z,20832
2018-08-28T13:44:47.608Z,20896
2018-08-28T13:45:57.449Z,20512
2018-08-28T13:47:07.776Z,20224
2018-08-28T13:48:18.133Z,20832
2018-08-28T13:49:27.717Z,22176
2018-08-28T13:50:37.579Z,23968
2018-08-28T13:51:47.705Z,25344
2018-08-28T13:52:57.291Z,27072
2018-08-28T13:54:07.320Z,30208
2018-08-28T13:55:17.030Z,30656
2018-08-28T13:56:27.166Z,32480
2018-08-28T13:57:36.744Z,33248
2018-08-28T13:58:46.626Z,32736
2018-08-28T13:59:57.103Z,41632
2018-08-28T14:01:07.182Z,44512
2018-08-28T14:02:17.040Z,53632
2018-08-28T14:03:26.908Z,52160
2018-08-28T14:04:36.498Z,50592
2018-08-28T14:05:46.092Z,44544
2018-08-28T14:06:55.671Z,52544
2018-08-28T14:08:05.254Z,64576
2018-08-28T14:09:15.376Z,61920
2018-08-28T14:10:25.246Z,60544
2018-08-28T14:11:34.587Z,59136
2018-08-28T14:12:43.908Z,59712
2018-08-28T14:13:54.127Z,61632
2018-08-28T14:15:05.025Z,60512
2018-08-28T14:16:14.825Z,61760
2018-08-28T14:17:24.978Z,60160
2018-08-28T14:18:34.566Z,57536
2018-08-28T14:19:44.163Z,61344
2018-08-28T14:20:53.756Z,61856
2018-08-28T14:22:03.075Z,60160
2018-08-28T14:23:12.992Z,52096
2018-08-28T14:24:23.157Z,53312
2018-08-28T14:25:33.028Z,52800
2018-08-28T14:26:42.621Z,52704
2018-08-28T14:27:52.509Z,54784
2018-08-28T14:29:02.352Z,56896
2018-08-28T14:30:12.555Z,56960
2018-08-28T14:31:22.711Z,56768
2018-08-28T14:32:32.617Z,56704
2018-08-28T14:33:41.944Z,20256
2018-08-28T14:34:51.852Z,18528
2018-08-28T14:36:02.015Z,17312
2018-08-28T14:37:12.165Z,16068
2018-08-28T14:38:22.069Z,15140
2018-08-28T14:39:32.236Z,14184
2018-08-28T14:40:42.625Z,13692
2018-08-28T14:41:52.507Z,13160
2018-08-28T14:43:02.397Z,12600
2018-08-28T14:44:12.003Z,12296
2018-08-28T14:45:22.152Z,12216
2018-08-28T14:46:32.024Z,12164
2018-08-28T14:47:41.624Z,11952
2018-08-28T14:48:51.763Z,11392
2018-08-28T14:50:02.174Z,10800
2018-08-28T14:51:12.179Z,10104
2018-08-28T14:52:22.073Z,9528
2018-08-28T14:53:31.677Z,8956
2018-08-28T14:54:41.393Z,8384
2018-08-28T14:55:51.715Z,7988
2018-08-28T14:57:01.591Z,7604
2018-08-28T14:58:11.505Z,7368
2018-08-28T14:59:20.282Z,7304
2018-08-28T15:00:30.157Z,7116
2018-08-28T15:01:40.305Z,6840
2018-08-28T15:02:49.643Z,6508
2018-08-28T15:03:59.518Z,6120
2018-08-28T15:05:08.842Z,5784
2018-08-28T15:06:18.711Z,5584
2018-08-28T15:07:28.873Z,5404
2018-08-28T15:08:39.028Z,5276
2018-08-28T15:09:48.637Z,5200
2018-08-28T15:10:58.240Z,5124
2018-08-28T15:12:07.566Z,5016
2018-08-28T15:13:17.159Z,4828
2018-08-28T15:14:26.760Z,4600
2018-08-28T15:15:36.073Z,4392
2018-08-28T15:16:46.346Z,4300
2018-08-28T15:17:56.783Z,4280
2018-08-28T15:19:06.647Z,4244
2018-08-28T15:20:16.499Z,4228
2018-08-28T15:21:26.618Z,4236
2018-08-28T15:22:36.461Z,4192
2018-08-28T15:23:46.043Z,4116
2018-08-28T15:24:55.347Z,4084
2018-08-28T15:26:05.466Z,4068
2018-08-28T15:27:15.500Z,4104
2018-08-28T15:28:25.915Z,4096
2018-08-28T15:29:35.764Z,4052
2018-08-28T15:30:45.345Z,4036
2018-08-28T15:31:55.303Z,4020
2018-08-28T15:33:05.422Z,3972
2018-08-28T15:34:14.734Z,3840
2018-08-28T15:35:24.308Z,3708
2018-08-28T15:36:33.892Z,3736
2018-08-28T15:37:43.476Z,3796
2018-08-28T15:38:53.329Z,3860
2018-08-28T15:40:02.907Z,3836
2018-08-28T15:41:12.501Z,3804
2018-08-28T15:42:22.397Z,3764
2018-08-28T15:43:32.253Z,3684
2018-08-28T15:44:42.167Z,3648
2018-08-28T15:45:52.286Z,3564
2018-08-28T15:47:02.184Z,3580
2018-08-28T15:48:11.768Z,3580
2018-08-28T15:49:21.880Z,3700